Terminal Aerodrome Forecast
Issued by NWS

Home | Current Version | Previous Version | Graphics & Text | Print | Product List | Glossary On
Versions: 1 2 3 4 5 6 7 8 9 10 11 12 13 14 15 16 17 18 19 20 21
000
FTUS43 KBIS 302000 AAB
TAFMOT
TAF AMD
KMOT 302050Z 3021/3118 35009KT P6SM BKN019
     FM302300 01007KT P6SM SCT250
     FM310400 09005KT P6SM SKC
     FM311100 15009KT P6SM SKC
     FM311600 15014G22KT P6SM FEW210=

USA.gov is the U.S. government's official web portal to all federal, state and local government web resources and services.